Time;durP1;ratioP1;P1;durP2;ratioP2;P2;SDS_P1;SDS_P2;PMS_P1;PMS_P2;Temp;Humidity;BMP_temperature;BMP_pressure;BME280_temperature;BME280_humidity;BME280_pressure;Samples;Min_cycle;Max_cycle;Signal;HPM_P1;HPM_P2
2022/02/10 00:21:01;;;;;;;45.28;5.55;;;;;;;;;;5023700;28;20080;-63
2022/02/10 00:23:49;;;;;;;25.63;3.85;;;;;;;;;;5023716;28;20100;-63
2022/02/10 00:34:34;;;;;;;27.08;3.75;;;;;;;;;;5020788;28;20046;-64
2022/02/10 00:42:03;;;;;;;44.08;4.78;;;;;;;;;;5022355;28;20072;-63
2022/02/10 00:44:29;;;;;;;35.30;5.78;;;;;;;;;;5022297;28;20049;-64
2022/02/10 00:46:55;;;;;;;33.50;4.38;;;;;;;;;;5022067;28;20075;-64
2022/02/10 00:49:23;;;;;;;34.40;4.47;;;;;;;;;;5023608;28;20054;-63
2022/02/10 00:51:50;;;;;;;26.98;4.78;;;;;;;;;;5022414;28;20130;-63
2022/02/10 00:54:22;;;;;;;31.77;4.20;;;;;;;;;;5027666;28;20068;-63
2022/02/10 00:56:57;;;;;;;28.40;3.67;;;;;;;;;;5023833;28;20690;-64
2022/02/10 01:00:02;;;;;;;26.83;4.28;;;;;;;;;;5024956;28;20485;-63
2022/02/10 01:02:38;;;;;;;33.80;4.65;;;;;;;;;;5024126;28;20140;-64
2022/02/10 01:10:50;;;;;;;32.78;4.82;;;;;;;;;;5023929;28;20141;-63
2022/02/10 01:29:49;;;;;;;32.45;4.57;;;;;;;;;;5021503;28;20049;-63
2022/02/10 01:32:17;;;;;;;42.88;5.25;;;;;;;;;;5025670;28;20077;-63
2022/02/10 01:34:48;;;;;;;22.45;4.15;;;;;;;;;;5023380;28;20617;-63
2022/02/10 01:37:16;;;;;;;31.98;5.57;;;;;;;;;;5021642;28;20099;-63
2022/02/10 01:39:54;;;;;;;29.00;3.33;;;;;;;;;;5025306;28;20073;-63
2022/02/10 02:04:25;;;;;;;25.05;3.70;;;;;;;;;;5026178;28;20073;-63
2022/02/10 02:06:54;;;;;;;28.90;3.72;;;;;;;;;;5023764;28;20666;-63
2022/02/10 02:09:21;;;;;;;17.13;3.50;;;;;;;;;;5025578;28;20139;-63
2022/02/10 02:11:52;;;;;;;28.67;3.35;;;;;;;;;;5023092;28;20081;-63
2022/02/10 02:14:20;;;;;;;33.05;4.45;;;;;;;;;;5019015;28;20053;-63
2022/02/10 02:16:59;;;;;;;33.50;3.95;;;;;;;;;;5021554;28;20144;-63
2022/02/10 02:19:26;;;;;;;29.08;3.10;;;;;;;;;;5022699;28;20092;-63
2022/02/10 02:21:57;;;;;;;27.30;4.25;;;;;;;;;;5022473;28;20112;-64
2022/02/10 02:24:23;;;;;;;45.08;4.93;;;;;;;;;;5025068;28;20482;-64
2022/02/10 02:26:53;;;;;;;42.88;4.80;;;;;;;;;;5023812;28;20073;-63
2022/02/10 02:29:29;;;;;;;;;;;;;;;;;;5019408;28;20088;-63
2022/02/10 02:31:58;;;;;;;27.70;4.20;;;;;;;;;;5021401;28;19929;-63
2022/02/10 03:07:47;;;;;;;29.15;3.75;;;;;;;;;;5019350;28;20125;-64
2022/02/10 03:12:41;;;;;;;21.88;3.88;;;;;;;;;;5038351;28;20099;-63
2022/02/10 03:15:17;;;;;;;20.58;3.40;;;;;;;;;;5036099;28;20148;-63
2022/02/10 03:17:55;;;;;;;25.42;3.58;;;;;;;;;;5040625;28;20088;-63
2022/02/10 04:05:13;;;;;;;23.33;3.97;;;;;;;;;;5044337;28;20083;-63
2022/02/10 04:23:59;;;;;;;29.63;3.25;;;;;;;;;;5042231;28;20461;-63
2022/02/10 05:37:55;;;;;;;23.02;3.92;;;;;;;;;;5042005;28;20144;-63
2022/02/10 05:40:58;;;;;;;25.35;3.95;;;;;;;;;;5046135;28;20080;-63
2022/02/10 05:43:29;;;;;;;27.00;3.55;;;;;;;;;;5041839;28;20133;-63
2022/02/10 05:46:14;;;;;;;26.45;3.83;;;;;;;;;;5030635;28;20137;-63
2022/02/10 05:49:08;;;;;;;21.23;3.20;;;;;;;;;;5046317;28;20079;-63
2022/02/10 05:52:14;;;;;;;19.58;4.38;;;;;;;;;;5041385;28;20088;-63
2022/02/10 05:54:42;;;;;;;25.38;3.30;;;;;;;;;;5043628;28;20094;-63
2022/02/10 06:03:05;;;;;;;25.80;3.88;;;;;;;;;;5041156;28;20513;-63
2022/02/10 06:39:43;;;;;;;32.25;3.85;;;;;;;;;;5038704;28;20076;-63
2022/02/10 06:47:14;;;;;;;22.10;3.55;;;;;;;;;;5038290;28;20167;-63
2022/02/10 06:50:02;;;;;;;28.98;4.65;;;;;;;;;;5037230;28;20044;-63
2022/02/10 06:55:24;;;;;;;34.83;3.47;;;;;;;;;;5035955;28;20076;-63
2022/02/10 07:08:48;;;;;;;28.98;3.65;;;;;;;;;;5037850;28;20555;-63
2022/02/10 09:06:20;;;;;;;22.98;3.17;;;;;;;;;;5043345;28;20152;-63
2022/02/10 10:02:47;;;;;;;19.48;2.80;;;;;;;;;;5037998;28;20168;-63
2022/02/10 10:05:39;;;;;;;14.27;2.65;;;;;;;;;;5041578;28;20981;-65
2022/02/10 10:57:15;;;;;;;25.58;4.25;;;;;;;;;;5041946;28;20497;-63
2022/02/10 11:39:04;;;;;;;19.15;3.00;;;;;;;;;;5037116;28;20073;-63
2022/02/10 11:41:40;;;;;;;26.50;3.95;;;;;;;;;;5030288;28;20100;-63
2022/02/10 12:02:01;;;;;;;26.75;4.72;;;;;;;;;;5041345;28;20076;-63
2022/02/10 12:33:34;;;;;;;30.23;3.88;;;;;;;;;;5018608;28;20124;-63
2022/02/10 14:13:27;;;;;;;29.67;4.00;;;;;;;;;;5022044;28;20088;-62
2022/02/10 14:18:31;;;;;;;28.95;3.30;;;;;;;;;;5015945;28;20140;-62
2022/02/10 14:21:04;;;;;;;20.30;2.88;;;;;;;;;;5018512;28;20124;-62
2022/02/10 14:26:24;;;;;;;26.02;3.83;;;;;;;;;;5018267;28;20045;-62
2022/02/10 14:28:58;;;;;;;19.77;3.55;;;;;;;;;;5012242;28;20122;-62
2022/02/10 14:31:25;;;;;;;16.42;3.40;;;;;;;;;;5017684;28;20485;-62
2022/02/10 14:33:52;;;;;;;31.17;3.28;;;;;;;;;;5018970;28;20049;-62
2022/02/10 14:36:28;;;;;;;21.40;3.65;;;;;;;;;;5020757;28;20253;-62
2022/02/10 14:39:17;;;;;;;27.13;3.67;;;;;;;;;;5016848;28;20085;-62
2022/02/10 14:42:30;;;;;;;28.58;3.97;;;;;;;;;;5018626;28;20057;-62
2022/02/10 15:21:52;;;;;;;26.02;3.22;;;;;;;;;;4985855;28;20647;-62
2022/02/10 15:46:38;;;;;;;34.75;4.35;;;;;;;;;;5038546;28;20054;-62
2022/02/10 15:56:59;;;;;;;29.07;3.93;;;;;;;;;;5038119;28;20054;-63
2022/02/10 16:17:58;;;;;;;22.13;3.30;;;;;;;;;;5019867;28;20085;-62
2022/02/10 16:20:29;;;;;;;25.77;3.33;;;;;;;;;;5019328;28;20088;-62
2022/02/10 16:23:00;;;;;;;25.52;4.28;;;;;;;;;;5020031;28;20560;-62
2022/02/10 16:25:27;;;;;;;28.75;4.57;;;;;;;;;;5021872;28;20129;-62
2022/02/10 16:30:56;;;;;;;35.38;4.00;;;;;;;;;;5019773;28;20119;-62
2022/02/10 16:33:32;;;;;;;24.92;3.95;;;;;;;;;;5016339;28;20038;-62
2022/02/10 16:36:16;;;;;;;31.30;4.53;;;;;;;;;;5019612;28;20042;-62
2022/02/10 16:38:47;;;;;;;25.35;3.33;;;;;;;;;;5021880;28;20476;-62
2022/02/10 16:41:27;;;;;;;33.45;4.88;;;;;;;;;;5023309;28;20095;-62
2022/02/10 16:43:58;;;;;;;26.05;4.47;;;;;;;;;;5025433;28;20559;-62
2022/02/10 16:46:32;;;;;;;23.77;3.92;;;;;;;;;;5022765;28;20053;-62
2022/02/10 16:49:06;;;;;;;28.08;3.85;;;;;;;;;;5023580;28;20475;-62
2022/02/10 16:51:41;;;;;;;35.05;4.72;;;;;;;;;;5026078;28;20507;-62
2022/02/10 16:54:17;;;;;;;26.27;4.40;;;;;;;;;;5023441;28;20148;-62
2022/02/10 16:57:40;;;;;;;28.08;3.83;;;;;;;;;;5023683;28;20084;-62
2022/02/10 16:59:53;;;;;;;18.40;3.67;;;;;;;;;;5013711;28;20215;-62
2022/02/10 17:02:44;;;;;;;26.85;3.65;;;;;;;;;;5018267;28;20058;-62
2022/02/10 17:19:16;;;;;;;29.45;3.85;;;;;;;;;;5023603;28;20314;-63
2022/02/10 17:36:02;;;;;;;24.27;3.72;;;;;;;;;;5023816;28;20072;-66
2022/02/10 17:51:26;;;;;;;27.38;4.53;;;;;;;;;;5024925;28;20116;-66
2022/02/10 17:54:28;;;;;;;23.27;3.67;;;;;;;;;;5021083;28;20484;-66
2022/02/10 17:56:54;;;;;;;40.35;4.35;;;;;;;;;;5020613;28;20115;-66
2022/02/10 17:59:22;;;;;;;34.55;4.53;;;;;;;;;;5023080;28;20072;-66
2022/02/10 18:01:48;;;;;;;34.53;4.13;;;;;;;;;;5019592;28;20042;-65
2022/02/10 18:04:16;;;;;;;35.13;4.00;;;;;;;;;;5022322;28;20077;-66
2022/02/10 18:06:46;;;;;;;31.80;4.90;;;;;;;;;;5020345;28;20176;-66
2022/02/10 18:14:33;;;;;;;38.53;4.28;;;;;;;;;;5020334;28;20139;-65
2022/02/10 18:20:00;;;;;;;27.05;4.07;;;;;;;;;;5022476;28;20128;-66
2022/02/10 18:33:24;;;;;;;29.65;4.28;;;;;;;;;;5018272;28;20089;-66
2022/02/10 19:09:41;;;;;;;19.73;3.60;;;;;;;;;;5022164;28;20104;-66
2022/02/10 19:12:16;;;;;;;20.55;2.88;;;;;;;;;;5018975;28;20078;-65
2022/02/10 19:14:51;;;;;;;26.17;3.70;;;;;;;;;;5024872;28;20088;-65
2022/02/10 19:17:20;;;;;;;14.33;2.70;;;;;;;;;;5018758;28;20100;-66
2022/02/10 19:19:47;;;;;;;15.38;2.80;;;;;;;;;;5020117;28;20132;-66
2022/02/10 19:22:13;;;;;;;19.67;2.72;;;;;;;;;;5016544;28;20129;-65
2022/02/10 19:24:40;;;;;;;13.63;2.80;;;;;;;;;;5018750;28;20484;-65
2022/02/10 19:27:08;;;;;;;26.63;2.60;;;;;;;;;;5018053;28;20168;-65
2022/02/10 19:29:35;;;;;;;16.48;2.95;;;;;;;;;;5019864;28;20049;-65
2022/02/10 19:32:05;;;;;;;23.45;3.33;;;;;;;;;;5014191;28;20125;-66
2022/02/10 19:34:35;;;;;;;23.05;3.20;;;;;;;;;;5020778;28;20136;-65
2022/02/10 19:37:19;;;;;;;15.88;2.60;;;;;;;;;;5016170;28;20050;-65
2022/02/10 19:39:52;;;;;;;29.23;2.88;;;;;;;;;;5022923;28;20132;-66
2022/02/10 19:42:19;;;;;;;22.05;3.67;;;;;;;;;;5020223;28;20574;-66
2022/02/10 19:44:45;;;;;;;21.20;2.83;;;;;;;;;;5020788;28;20100;-65
2022/02/10 19:47:13;;;;;;;;;;;;;;;;;;5020592;28;20081;-65
2022/02/10 19:49:42;;;;;;;23.10;2.42;;;;;;;;;;5018519;28;20372;-65
2022/02/10 19:52:08;;;;;;;17.02;2.55;;;;;;;;;;5019202;28;20103;-65
2022/02/10 19:54:45;;;;;;;28.80;4.65;;;;;;;;;;5021463;28;20132;-65
2022/02/10 19:57:12;;;;;;;24.00;2.70;;;;;;;;;;5020368;28;20128;-65
2022/02/10 19:59:39;;;;;;;20.98;3.08;;;;;;;;;;5019567;28;20486;-65
2022/02/10 20:02:07;;;;;;;31.67;3.65;;;;;;;;;;5020483;28;20533;-65
2022/02/10 20:04:33;;;;;;;15.23;2.80;;;;;;;;;;5014800;28;20570;-65
2022/02/10 20:07:00;;;;;;;22.67;2.90;;;;;;;;;;5018233;28;20077;-65
2022/02/10 20:09:26;;;;;;;22.20;2.70;;;;;;;;;;5021911;28;20132;-65
2022/02/10 20:11:54;;;;;;;19.92;2.60;;;;;;;;;;5020042;28;20497;-65
2022/02/10 20:14:22;;;;;;;31.85;3.15;;;;;;;;;;5019478;28;20163;-65
2022/02/10 20:16:50;;;;;;;16.98;2.35;;;;;;;;;;5019192;28;20104;-65
2022/02/10 20:19:16;;;;;;;34.05;3.38;;;;;;;;;;5025848;28;20622;-65
2022/02/10 20:21:43;;;;;;;20.53;2.63;;;;;;;;;;5024452;28;20088;-65
2022/02/10 20:24:16;;;;;;;21.98;2.70;;;;;;;;;;5023744;28;20132;-64
2022/02/10 20:26:43;;;;;;;24.33;2.60;;;;;;;;;;5024350;28;20060;-64
2022/02/10 20:29:15;;;;;;;22.02;2.95;;;;;;;;;;5024337;28;20049;-64
2022/02/10 20:31:48;;;;;;;19.65;2.60;;;;;;;;;;5021325;28;20146;-64
2022/02/10 20:34:16;;;;;;;28.53;2.80;;;;;;;;;;5024828;28;20168;-64
2022/02/10 20:36:42;;;;;;;26.85;3.38;;;;;;;;;;5021155;28;21089;-63
2022/02/10 20:39:17;;;;;;;31.75;4.00;;;;;;;;;;5022938;28;20081;-64
2022/02/10 20:41:50;;;;;;;21.40;2.72;;;;;;;;;;5022793;28;20090;-64
2022/02/10 20:44:16;;;;;;;20.92;2.72;;;;;;;;;;5025468;28;20053;-64
2022/02/10 20:46:44;;;;;;;24.40;3.22;;;;;;;;;;5019268;28;20061;-63
2022/02/10 20:49:16;;;;;;;25.90;3.05;;;;;;;;;;5020705;28;20484;-64
2022/02/10 20:51:44;;;;;;;22.60;2.80;;;;;;;;;;5022986;28;20042;-63
2022/02/10 20:54:10;;;;;;;23.63;3.63;;;;;;;;;;5021036;28;20085;-63
2022/02/10 20:56:37;;;;;;;21.15;2.60;;;;;;;;;;5021868;28;20042;-63
2022/02/10 20:59:35;;;;;;;18.75;2.83;;;;;;;;;;5019580;28;20092;-64
2022/02/10 21:02:08;;;;;;;22.20;2.83;;;;;;;;;;5022051;28;20165;-63
2022/02/10 21:04:40;;;;;;;17.25;2.83;;;;;;;;;;5017541;28;20053;-63
2022/02/10 21:09:52;;;;;;;24.60;3.13;;;;;;;;;;5020130;28;20626;-64
2022/02/10 21:12:19;;;;;;;21.80;3.20;;;;;;;;;;5023572;28;20053;-63
2022/02/10 21:14:49;;;;;;;13.05;2.53;;;;;;;;;;5022233;28;20596;-63
2022/02/10 21:17:21;;;;;;;17.83;2.42;;;;;;;;;;5024450;28;20242;-63
2022/02/10 21:19:48;;;;;;;28.50;3.45;;;;;;;;;;5022885;28;20112;-62
2022/02/10 21:22:19;;;;;;;18.65;2.80;;;;;;;;;;5020701;28;20096;-63
2022/02/10 21:25:11;;;;;;;25.25;2.72;;;;;;;;;;5021109;28;20053;-62
2022/02/10 21:27:44;;;;;;;18.52;2.75;;;;;;;;;;5019782;28;20129;-62
2022/02/10 21:30:12;;;;;;;14.15;2.95;;;;;;;;;;5018822;28;20136;-62
2022/02/10 21:32:54;;;;;;;18.13;2.75;;;;;;;;;;5023590;28;20544;-63
2022/02/10 21:35:44;;;;;;;15.70;2.75;;;;;;;;;;5021160;28;20096;-63
2022/02/10 21:38:20;;;;;;;22.85;2.72;;;;;;;;;;5021921;28;20076;-62
2022/02/10 22:11:10;;;;;;;19.30;2.67;;;;;;;;;;5022583;28;20056;-63
2022/02/10 22:19:08;;;;;;;12.25;2.22;;;;;;;;;;5024217;28;20168;-63
2022/02/10 22:21:43;;;;;;;27.42;2.90;;;;;;;;;;5019088;28;20096;-63
2022/02/10 22:24:13;;;;;;;8.88;2.22;;;;;;;;;;5021951;28;20082;-63
2022/02/10 22:26:41;;;;;;;16.77;2.50;;;;;;;;;;5022818;28;20473;-63
2022/02/10 22:32:00;;;;;;;24.73;2.38;;;;;;;;;;5021385;28;20619;-63
2022/02/10 22:34:38;;;;;;;29.95;2.45;;;;;;;;;;5019121;28;20081;-63
2022/02/10 22:37:07;;;;;;;18.67;2.45;;;;;;;;;;5021791;28;20077;-63
2022/02/10 22:39:40;;;;;;;11.32;2.35;;;;;;;;;;5018083;28;20501;-63
2022/02/10 22:42:07;;;;;;;16.83;2.28;;;;;;;;;;5023065;28;20124;-63
2022/02/10 22:44:34;;;;;;;19.98;2.80;;;;;;;;;;5022948;28;20073;-63
2022/02/10 22:47:04;;;;;;;19.10;2.60;;;;;;;;;;5022581;28;20125;-63
2022/02/10 22:49:31;;;;;;;22.02;2.17;;;;;;;;;;5007315;28;20136;-63
2022/02/10 22:51:57;;;;;;;26.50;3.05;;;;;;;;;;5018002;28;20116;-63
2022/02/10 22:54:24;;;;;;;23.20;2.03;;;;;;;;;;5021760;28;20164;-63
2022/02/10 22:56:51;;;;;;;14.73;2.42;;;;;;;;;;5021640;28;20073;-63
2022/02/10 22:59:19;;;;;;;16.17;2.13;;;;;;;;;;5020083;28;20131;-63
2022/02/10 23:01:53;;;;;;;19.75;2.20;;;;;;;;;;5016269;28;20132;-63
2022/02/10 23:04:20;;;;;;;32.60;3.75;;;;;;;;;;5018414;28;20149;-63
2022/02/10 23:06:49;;;;;;;18.98;1.73;;;;;;;;;;5017355;28;20076;-63
2022/02/10 23:10:03;;;;;;;17.83;2.20;;;;;;;;;;5021693;28;20072;-64
2022/02/10 23:12:07;;;;;;;22.30;2.55;;;;;;;;;;5012978;28;20136;-63
2022/02/10 23:14:34;;;;;;;18.52;1.98;;;;;;;;;;5020495;28;20490;-65
2022/02/10 23:17:00;;;;;;;19.00;2.70;;;;;;;;;;5022908;28;20057;-65
2022/02/10 23:19:27;;;;;;;21.52;3.03;;;;;;;;;;5019864;28;20128;-65
2022/02/10 23:22:00;;;;;;;18.33;2.50;;;;;;;;;;5020274;28;20054;-65
2022/02/10 23:24:27;;;;;;;25.10;3.17;;;;;;;;;;5016830;28;20524;-65
2022/02/10 23:26:53;;;;;;;23.58;2.67;;;;;;;;;;5022845;28;20490;-64
2022/02/10 23:29:21;;;;;;;16.90;1.77;;;;;;;;;;5022462;28;20080;-64
2022/02/10 23:31:47;;;;;;;19.40;2.90;;;;;;;;;;5021027;28;20049;-64
2022/02/10 23:34:13;;;;;;;23.38;2.35;;;;;;;;;;5019454;28;20088;-65
2022/02/10 23:36:50;;;;;;;23.70;2.28;;;;;;;;;;5022192;28;20099;-64
2022/02/10 23:39:26;;;;;;;16.42;2.15;;;;;;;;;;5020999;28;20144;-64
2022/02/10 23:44:56;;;;;;;23.52;2.45;;;;;;;;;;5003960;28;20132;-64
2022/02/10 23:47:24;;;;;;;14.32;2.13;;;;;;;;;;5021469;28;20438;-64
2022/02/10 23:49:52;;;;;;;26.25;2.50;;;;;;;;;;5021152;28;20084;-64
2022/02/10 23:52:25;;;;;;;23.25;2.33;;;;;;;;;;5022440;28;20089;-64
2022/02/10 23:55:06;;;;;;;22.35;2.30;;;;;;;;;;5024878;28;20088;-64
2022/02/10 23:57:51;;;;;;;16.45;2.85;;;;;;;;;;5027679;28;20123;-64
